Time;durP1;ratioP1;P1;durP2;ratioP2;P2;SDS_P1;SDS_P2;PMS_P1;PMS_P2;Temp;Humidity;BMP_temperature;BMP_pressure;BME280_temperature;BME280_humidity;BME280_pressure;Samples;Min_cycle;Max_cycle;Signal;HPM_P1;HPM_P2
2022/06/18 00:00:47;;;;;;;18.10;9.45;;;15.60;99.90;;;;;;5077754;28;20474;-55
2022/06/18 00:03:14;;;;;;;15.77;9.90;;;15.60;99.90;;;;;;5077707;28;20032;-55
2022/06/18 00:05:41;;;;;;;14.65;9.52;;;15.60;99.90;;;;;;5077706;28;20431;-55
2022/06/18 00:08:14;;;;;;;13.82;9.15;;;15.50;99.90;;;;;;5077763;28;20021;-55
2022/06/18 00:10:41;;;;;;;14.63;9.27;;;15.40;99.90;;;;;;5077536;28;20025;-55
2022/06/18 00:15:58;;;;;;;16.20;10.27;;;15.40;99.90;;;;;;5077259;28;20040;-55
2022/06/18 00:18:24;;;;;;;13.98;10.20;;;15.40;99.90;;;;;;5077527;28;20052;-55
2022/06/18 00:20:50;;;;;;;13.65;9.95;;;15.40;99.90;;;;;;5077496;28;20062;-55
2022/06/18 00:23:17;;;;;;;15.95;10.10;;;15.40;99.90;;;;;;5077284;28;20093;-55
2022/06/18 00:25:47;;;;;;;19.23;11.88;;;15.40;99.90;;;;;;5077357;28;20036;-55
2022/06/18 00:28:16;;;;;;;17.58;11.10;;;15.50;99.90;;;;;;5077102;28;20462;-55
2022/06/18 00:30:43;;;;;;;19.65;11.75;;;15.60;99.90;;;;;;5075977;28;20033;-55
2022/06/18 00:33:09;;;;;;;23.00;13.40;;;15.60;99.90;;;;;;5075760;28;20505;-55
2022/06/18 00:35:35;;;;;;;24.10;16.42;;;15.60;99.90;;;;;;5077269;28;20086;-55
2022/06/18 00:38:04;;;;;;;27.13;17.23;;;15.70;99.90;;;;;;5076998;28;20071;-55
2022/06/18 00:40:48;;;;;;;24.60;15.68;;;15.70;99.90;;;;;;5076883;28;20486;-55
2022/06/18 00:43:41;;;;;;;24.52;14.40;;;15.60;99.90;;;;;;5075708;28;20032;-55
2022/06/18 00:46:25;;;;;;;35.38;19.25;;;15.70;99.90;;;;;;5075577;28;20036;-55
2022/06/18 00:49:15;;;;;;;47.83;21.17;;;15.80;99.90;;;;;;5092463;28;20024;-55
2022/06/18 00:51:51;;;;;;;49.97;22.65;;;15.70;99.90;;;;;;5075355;28;20024;-55
2022/06/18 00:54:29;;;;;;;41.60;20.08;;;15.80;99.90;;;;;;5076917;28;20028;-55
2022/06/18 00:57:28;;;;;;;49.42;21.17;;;15.80;99.90;;;;;;5075398;28;20028;-55
2022/06/18 01:00:08;;;;;;;49.00;21.65;;;15.80;99.90;;;;;;5075458;28;20029;-55
2022/06/18 01:02:39;;;;;;;54.83;25.30;;;15.80;99.90;;;;;;5076719;28;20032;-55
2022/06/18 01:05:36;;;;;;;58.38;24.65;;;15.80;99.90;;;;;;5075120;28;20028;-55
2022/06/18 01:08:14;;;;;;;54.65;21.88;;;15.80;99.90;;;;;;5073364;28;20041;-55
2022/06/18 01:10:45;;;;;;;65.07;24.52;;;15.80;99.90;;;;;;5092154;28;20047;-55
2022/06/18 01:13:16;;;;;;;53.15;21.13;;;15.80;99.90;;;;;;5075120;28;20075;-55
2022/06/18 01:15:44;;;;;;;77.15;26.80;;;15.70;99.90;;;;;;5076444;28;20024;-55
2022/06/18 01:18:12;;;;;;;66.28;24.67;;;15.70;99.90;;;;;;5075018;28;20115;-55
2022/06/18 01:20:51;;;;;;;67.32;24.75;;;15.80;99.90;;;;;;5075150;28;20035;-55
2022/06/18 01:23:36;;;;;;;75.10;26.58;;;15.80;99.90;;;;;;5075199;28;20506;-55
2022/06/18 01:26:02;;;;;;;94.90;30.50;;;15.90;99.90;;;;;;5091814;28;20105;-55
2022/06/18 01:28:28;;;;;;;91.72;30.48;;;15.90;99.90;;;;;;5074611;28;20032;-55
2022/06/18 01:30:55;;;;;;;91.45;29.13;;;16.00;99.90;;;;;;5074841;28;20543;-55
2022/06/18 01:33:21;;;;;;;102.75;30.25;;;16.00;99.90;;;;;;5074687;28;20492;-55
2022/06/18 01:35:53;;;;;;;94.65;28.77;;;15.90;99.90;;;;;;5074709;28;20089;-55
2022/06/18 01:38:28;;;;;;;94.18;29.13;;;16.00;99.90;;;;;;5074701;28;20484;-55
2022/06/18 01:41:52;;;;;;;118.35;30.90;;;16.00;99.90;;;;;;5074385;28;20386;-55
2022/06/18 01:44:51;;;;;;;117.75;32.63;;;16.00;99.90;;;;;;4974616;28;20074;-55
2022/06/18 01:47:24;;;;;;;144.05;37.78;;;16.00;99.90;;;;;;4974478;28;20055;-55
2022/06/18 01:50:02;;;;;;;199.75;46.90;;;16.10;99.90;;;;;;4974717;28;20027;-55
2022/06/18 01:52:36;;;;;;;218.75;53.00;;;16.10;99.90;;;;;;4974093;28;20128;-55
2022/06/18 01:55:14;;;;;;;269.90;63.65;;;16.20;99.90;;;;;;4974560;28;20031;-55
2022/06/18 01:57:49;;;;;;;378.48;72.82;;;16.10;99.90;;;;;;4974273;28;20610;-55
2022/06/18 02:00:21;;;;;;;251.05;67.55;;;16.00;99.90;;;;;;4974360;28;20030;-55
2022/06/18 02:02:55;;;;;;;205.88;54.13;;;16.00;99.90;;;;;;4974111;28;20030;-55
2022/06/18 02:05:22;;;;;;;179.40;52.83;;;16.10;99.90;;;;;;4974489;28;20282;-55
2022/06/18 02:07:50;;;;;;;211.85;64.57;;;16.20;99.90;;;;;;4974233;28;20492;-55
2022/06/18 02:10:36;;;;;;;273.88;78.13;;;16.20;99.90;;;;;;4957939;28;20054;-55
2022/06/18 02:13:04;;;;;;;231.30;71.03;;;16.10;99.90;;;;;;4973631;28;20415;-55
2022/06/18 02:15:35;;;;;;;195.93;66.50;;;16.00;99.90;;;;;;4973899;28;20079;-55
2022/06/18 02:18:02;;;;;;;;;;;16.00;99.90;;;;;;5029038;28;20112;-55
2022/06/18 02:20:31;;;;;;;207.48;60.30;;;16.00;99.90;;;;;;5075010;28;19912;-55
2022/06/18 02:22:57;;;;;;;186.13;64.68;;;16.00;99.90;;;;;;5073868;28;20031;-55
2022/06/18 02:25:29;;;;;;;184.90;62.17;;;16.00;99.90;;;;;;5075143;28;20107;-55
2022/06/18 02:28:00;;;;;;;234.57;68.93;;;15.90;99.90;;;;;;5074721;28;20033;-55
2022/06/18 02:30:27;;;;;;;;;;;16.00;99.90;;;;;;5074270;28;20179;-55
2022/06/18 02:33:23;;;;;;;194.77;64.60;;;15.90;99.90;;;;;;5107282;28;19947;-55
2022/06/18 02:35:49;;;;;;;196.27;65.72;;;15.90;99.90;;;;;;5073760;28;20122;-55
2022/06/18 02:38:20;;;;;;;190.13;66.00;;;16.00;99.90;;;;;;5074766;28;20025;-55
2022/06/18 02:40:46;;;;;;;187.60;66.85;;;16.10;99.90;;;;;;5073318;28;20043;-55
2022/06/18 02:43:15;;;;;;;182.98;64.07;;;16.10;99.90;;;;;;5074759;28;20029;-55
2022/06/18 02:45:43;;;;;;;178.63;62.10;;;16.00;99.90;;;;;;5073338;28;20394;-55
2022/06/18 02:48:10;;;;;;;182.88;45.90;;;15.90;99.90;;;;;;5090282;28;20028;-55
2022/06/18 02:50:39;;;;;;;168.23;47.30;;;15.80;99.90;;;;;;5073505;28;20029;-55
2022/06/18 02:53:08;;;;;;;172.65;46.83;;;15.70;99.90;;;;;;5074683;28;20040;-55
2022/06/18 02:55:40;;;;;;;159.50;48.40;;;15.80;99.90;;;;;;5073413;28;20083;-55
2022/06/18 02:58:17;;;;;;;146.25;46.78;;;15.80;99.90;;;;;;5073105;28;20363;-55
2022/06/18 03:00:47;;;;;;;150.00;46.65;;;15.70;99.90;;;;;;5090104;28;20512;-55
2022/06/18 03:03:17;;;;;;;145.85;46.38;;;15.70;99.90;;;;;;5074438;28;20570;-55
2022/06/18 03:05:43;;;;;;;137.43;44.17;;;15.80;99.90;;;;;;5073380;28;20067;-55
2022/06/18 03:08:10;;;;;;;141.57;44.42;;;15.90;99.90;;;;;;5073121;28;20082;-55
2022/06/18 03:13:21;;;;;;;141.55;42.85;;;16.10;99.90;;;;;;5074479;28;20242;-57
2022/06/18 03:15:53;;;;;;;135.65;42.38;;;15.90;99.90;;;;;;5073004;28;20024;-55
2022/06/18 03:18:23;;;;;;;140.63;47.83;;;15.90;99.90;;;;;;5073221;28;20078;-55
2022/06/18 03:21:21;;;;;;;128.57;44.97;;;15.90;99.90;;;;;;5074378;28;20024;-55
2022/06/18 03:23:47;;;;;;;146.20;48.47;;;15.80;99.90;;;;;;5073164;28;20273;-55
2022/06/18 03:26:16;;;;;;;126.60;41.47;;;15.80;99.90;;;;;;5089874;28;20131;-55
2022/06/18 03:28:45;;;;;;;151.13;43.88;;;15.70;99.90;;;;;;5072775;28;20094;-55
2022/06/18 03:31:13;;;;;;;134.20;45.70;;;15.50;99.90;;;;;;5078442;28;20055;-55
2022/06/18 03:33:41;;;;;;;142.70;47.60;;;15.50;99.90;;;;;;5076994;28;20056;-55
2022/06/18 03:36:11;;;;;;;146.40;49.95;;;15.50;99.90;;;;;;5077068;28;20078;-55
2022/06/18 03:38:39;;;;;;;120.97;47.67;;;15.60;99.90;;;;;;5077064;28;20496;-55
2022/06/18 03:41:08;;;;;;;130.88;46.17;;;15.70;99.90;;;;;;5076729;28;20035;-55
2022/06/18 03:43:35;;;;;;;126.75;46.88;;;15.70;99.90;;;;;;5076900;28;20474;-55
2022/06/18 03:46:07;;;;;;;114.50;47.80;;;15.80;99.90;;;;;;5076729;28;20094;-55
2022/06/18 03:48:42;;;;;;;103.28;43.15;;;15.80;99.90;;;;;;5076755;28;20487;-55
2022/06/18 03:51:10;;;;;;;92.35;40.17;;;15.90;99.90;;;;;;5076664;28;20028;-55
2022/06/18 03:53:36;;;;;;;98.63;43.88;;;15.80;99.90;;;;;;5076565;28;20048;-55
2022/06/18 03:56:03;;;;;;;91.82;41.58;;;15.80;99.90;;;;;;5093638;28;20490;-55
2022/06/18 03:58:34;;;;;;;86.65;40.03;;;15.90;99.90;;;;;;5076474;28;20025;-55
2022/06/18 04:01:01;;;;;;;62.50;33.47;;;15.80;99.90;;;;;;5076669;28;20122;-55
2022/06/18 04:03:27;;;;;;;65.10;33.00;;;15.90;99.90;;;;;;5093277;28;20025;-55
2022/06/18 04:05:54;;;;;;;59.00;32.78;;;15.80;99.90;;;;;;5076388;28;20039;-55
2022/06/18 04:08:20;;;;;;;60.63;32.92;;;15.90;99.90;;;;;;5076465;28;20092;-55
2022/06/18 04:10:54;;;;;;;56.67;30.52;;;15.80;99.90;;;;;;5076208;28;20020;-55
2022/06/18 04:13:20;;;;;;;60.05;31.40;;;15.70;99.90;;;;;;5076493;28;20116;-55
2022/06/18 04:15:53;;;;;;;61.95;32.63;;;15.80;99.90;;;;;;5077587;28;20539;-55
2022/06/18 04:18:31;;;;;;;64.47;34.75;;;15.90;99.90;;;;;;5093050;28;20037;-55
2022/06/18 04:21:01;;;;;;;83.15;40.63;;;16.00;99.90;;;;;;5076305;28;20089;-55
2022/06/18 04:23:31;;;;;;;97.63;45.10;;;16.10;99.90;;;;;;5076036;28;20045;-55
2022/06/18 04:25:57;;;;;;;110.45;50.38;;;15.90;99.90;;;;;;5092894;28;20033;-55
2022/06/18 04:28:25;;;;;;;171.90;64.57;;;15.90;99.90;;;;;;5075932;28;20029;-55
2022/06/18 04:30:57;;;;;;;217.63;77.00;;;16.00;99.90;;;;;;5076072;28;20046;-55
2022/06/18 04:33:30;;;;;;;289.63;87.30;;;16.10;99.90;;;;;;5075768;28;20102;-55
2022/06/18 04:36:31;;;;;;;300.27;89.18;;;16.10;99.90;;;;;;5076080;28;20036;-55
2022/06/18 04:38:59;;;;;;;297.95;84.43;;;16.10;99.90;;;;;;5075759;28;20453;-55
2022/06/18 04:41:37;;;;;;;299.52;89.43;;;16.20;99.90;;;;;;5075531;28;20024;-55
2022/06/18 04:44:10;;;;;;;303.95;89.70;;;16.20;99.90;;;;;;5075650;28;20028;-55
2022/06/18 04:46:38;;;;;;;314.08;92.03;;;16.30;99.90;;;;;;5075701;28;20028;-55
2022/06/18 04:49:04;;;;;;;325.92;93.93;;;16.40;99.90;;;;;;5075629;28;20124;-55
2022/06/18 04:51:30;;;;;;;333.70;93.65;;;16.40;99.90;;;;;;5092519;28;20098;-55
2022/06/18 04:53:56;;;;;;;318.73;91.40;;;16.30;99.90;;;;;;5092271;28;20059;-55
2022/06/18 04:56:23;;;;;;;330.23;91.13;;;16.50;99.90;;;;;;5075639;28;20031;-55
2022/06/18 04:58:49;;;;;;;318.67;93.80;;;16.40;99.90;;;;;;5076910;28;20086;-55
2022/06/18 05:01:18;;;;;;;320.10;93.03;;;16.40;99.90;;;;;;5092290;28;20043;-55
2022/06/18 05:04:08;;;;;;;344.90;97.20;;;16.50;99.90;;;;;;5076620;28;20435;-55
2022/06/18 05:06:54;;;;;;;387.25;100.35;;;16.70;99.90;;;;;;5075474;28;20039;-55
2022/06/18 05:09:38;;;;;;;415.83;105.40;;;16.60;99.90;;;;;;5075300;28;20032;-55
2022/06/18 05:12:29;;;;;;;418.50;106.43;;;16.60;99.90;;;;;;5075294;28;20033;-55
2022/06/18 05:14:59;;;;;;;402.40;105.15;;;16.60;99.90;;;;;;5075086;28;20501;-55
2022/06/18 05:17:29;;;;;;;384.70;100.00;;;16.70;99.90;;;;;;5075264;28;20024;-55
2022/06/18 05:19:56;;;;;;;381.02;99.57;;;16.70;99.90;;;;;;5075037;28;20113;-55
2022/06/18 05:22:24;;;;;;;410.13;103.20;;;16.80;99.90;;;;;;5075140;28;20362;-55
2022/06/18 05:24:53;;;;;;;405.08;96.85;;;16.80;99.90;;;;;;5075259;28;20024;-55
2022/06/18 05:27:29;;;;;;;422.95;104.55;;;16.90;99.90;;;;;;5074878;28;20036;-55
2022/06/18 05:29:55;;;;;;;401.45;100.10;;;17.00;99.90;;;;;;5074842;28;20461;-55
2022/06/18 05:32:25;;;;;;;382.63;98.28;;;17.00;99.90;;;;;;5074890;28;20101;-55
2022/06/18 05:34:51;;;;;;;396.35;99.88;;;16.80;99.90;;;;;;5074893;28;20040;-55
2022/06/18 05:37:24;;;;;;;391.30;97.07;;;17.00;99.90;;;;;;5074622;28;20032;-55
2022/06/18 05:39:50;;;;;;;349.25;90.10;;;17.10;99.90;;;;;;5074515;28;20032;-55
2022/06/18 05:42:16;;;;;;;376.42;94.07;;;17.20;99.90;;;;;;5074524;28;20025;-55
2022/06/18 05:44:42;;;;;;;376.05;93.03;;;17.30;99.90;;;;;;5091253;28;20389;-55
2022/06/18 05:47:15;;;;;;;367.15;94.80;;;17.60;99.90;;;;;;5074625;28;20470;-55
2022/06/18 05:49:42;;;;;;;370.60;92.78;;;17.30;99.90;;;;;;5075753;28;20032;-55
2022/06/18 05:52:09;;;;;;;360.20;91.45;;;17.50;99.90;;;;;;5073658;28;20041;-55
2022/06/18 05:54:36;;;;;;;358.55;93.15;;;17.30;99.90;;;;;;5074453;28;20116;-55
2022/06/18 05:57:25;;;;;;;339.63;85.28;;;17.50;99.90;;;;;;5075345;28;20035;-55
2022/06/18 06:00:16;;;;;;;324.92;83.00;;;18.00;99.90;;;;;;5074328;28;20082;-55
2022/06/18 06:02:46;;;;;;;322.17;84.32;;;18.20;99.90;;;;;;5074258;28;20035;-55
2022/06/18 06:05:12;;;;;;;308.65;84.38;;;18.40;99.90;;;;;;5074208;28;20028;-55
2022/06/18 06:07:39;;;;;;;307.25;80.68;;;18.40;99.90;;;;;;5073987;28;20024;-55
2022/06/18 06:13:04;;;;;;;300.48;78.80;;;18.70;99.90;;;;;;5075169;28;20024;-55
2022/06/18 06:15:30;;;;;;;303.45;78.72;;;18.70;99.90;;;;;;5075145;28;20029;-55
2022/06/18 06:17:56;;;;;;;316.40;76.68;;;18.80;99.90;;;;;;5073914;28;20028;-55
2022/06/18 06:20:27;;;;;;;272.58;71.28;;;18.90;99.90;;;;;;5075275;28;20039;-55
2022/06/18 06:22:54;;;;;;;297.52;76.80;;;18.90;99.90;;;;;;5075248;28;20033;-55
2022/06/18 06:25:20;;;;;;;281.35;74.78;;;19.00;99.90;;;;;;5075315;28;20060;-55
2022/06/18 06:27:45;;;;;;;267.52;70.97;;;19.10;99.90;;;;;;5074757;28;20063;-55
2022/06/18 06:30:16;;;;;;;281.20;73.38;;;19.30;99.90;;;;;;5075012;28;20063;-55
2022/06/18 06:32:43;;;;;;;;;;;19.40;99.90;;;;;;5075258;28;20021;-55
2022/06/18 06:35:09;;;;;;;300.13;73.05;;;19.50;99.90;;;;;;5074951;28;20250;-55
2022/06/18 06:37:35;;;;;;;259.80;67.40;;;19.60;99.90;;;;;;5074912;28;20089;-55
2022/06/18 06:40:02;;;;;;;251.63;67.05;;;19.80;99.90;;;;;;5074664;28;20123;-55
2022/06/18 06:42:27;;;;;;;246.38;63.90;;;19.80;99.90;;;;;;5074752;28;20056;-55
2022/06/18 06:44:54;;;;;;;255.30;64.53;;;20.00;99.90;;;;;;5074825;28;20036;-55
2022/06/18 06:47:21;;;;;;;245.35;63.90;;;20.00;99.90;;;;;;5074525;28;20020;-55
2022/06/18 06:49:47;;;;;;;249.10;63.53;;;20.00;99.90;;;;;;5074839;28;20029;-55
2022/06/18 06:52:13;;;;;;;234.25;62.10;;;20.30;99.90;;;;;;5074620;28;20051;-55
2022/06/18 06:54:39;;;;;;;176.00;49.97;;;20.50;99.90;;;;;;5074577;28;20021;-55
2022/06/18 06:57:21;;;;;;;224.30;63.25;;;20.70;99.90;;;;;;5074691;28;20057;-55
2022/06/18 06:59:47;;;;;;;186.65;53.05;;;20.90;99.90;;;;;;5074440;28;20485;-55
2022/06/18 07:02:16;;;;;;;251.75;66.03;;;21.10;99.90;;;;;;5074410;28;20115;-55
2022/06/18 07:04:43;;;;;;;184.23;51.13;;;21.30;99.90;;;;;;5074507;28;20453;-55
2022/06/18 07:07:12;;;;;;;186.68;52.97;;;21.50;99.90;;;;;;5074436;28;20463;-55
2022/06/18 07:09:39;;;;;;;111.47;36.05;;;21.90;99.90;;;;;;5074395;28;20474;-55
2022/06/18 07:12:06;;;;;;;41.35;16.23;;;22.10;99.90;;;;;;5074438;28;20556;-56
2022/06/18 07:14:33;;;;;;;39.08;17.48;;;22.20;98.40;;;;;;5074255;28;20029;-55
2022/06/18 07:16:58;;;;;;;25.15;9.05;;;22.50;98.10;;;;;;5074293;28;20025;-55
2022/06/18 07:19:25;;;;;;;19.75;9.05;;;22.80;93.80;;;;;;5074417;28;20517;-56
2022/06/18 07:21:52;;;;;;;10.75;6.13;;;23.10;89.10;;;;;;5074288;28;20123;-55
2022/06/18 07:24:19;;;;;;;20.40;6.18;;;23.20;77.30;;;;;;5074232;28;20428;-55
2022/06/18 07:26:45;;;;;;;10.02;4.68;;;23.40;84.00;;;;;;5074196;28;20340;-55
2022/06/18 07:29:13;;;;;;;7.80;4.50;;;23.80;84.70;;;;;;5074146;28;20135;-55
2022/06/18 07:31:39;;;;;;;7.97;4.45;;;24.10;81.10;;;;;;5074120;28;20451;-55
2022/06/18 07:34:06;;;;;;;12.68;5.40;;;24.30;75.40;;;;;;5074109;28;20060;-56
2022/06/18 07:36:33;;;;;;;7.75;4.65;;;24.50;70.90;;;;;;5074232;28;20033;-56
2022/06/18 07:39:04;;;;;;;6.43;3.80;;;24.50;68.40;;;;;;5073937;28;20032;-56
2022/06/18 07:41:33;;;;;;;;;;;24.50;73.60;;;;;;5074672;28;20025;-56
2022/06/18 07:43:59;;;;;;;11.50;4.65;;;24.60;70.70;;;;;;5074194;28;20251;-56
2022/06/18 07:46:25;;;;;;;12.30;4.30;;;24.80;70.80;;;;;;5073967;28;20028;-56
2022/06/18 07:48:51;;;;;;;5.43;3.97;;;24.70;76.60;;;;;;5073991;28;20037;-56
2022/06/18 07:51:17;;;;;;;8.85;4.47;;;24.90;67.20;;;;;;5074117;28;20031;-56
2022/06/18 07:53:43;;;;;;;7.28;4.30;;;24.60;68.40;;;;;;5073858;28;20438;-56
2022/06/18 07:56:13;;;;;;;8.48;3.80;;;25.20;73.50;;;;;;5074201;28;20029;-56
2022/06/18 07:58:39;;;;;;;8.65;4.03;;;24.90;68.90;;;;;;5074015;28;20029;-55
2022/06/18 08:01:05;;;;;;;5.05;3.90;;;24.80;67.60;;;;;;5074037;28;20458;-55
2022/06/18 08:03:32;;;;;;;8.05;3.88;;;24.70;65.30;;;;;;5073824;28;20028;-55
2022/06/18 08:05:58;;;;;;;7.78;3.97;;;24.80;65.60;;;;;;5073872;28;20024;-55
2022/06/18 08:08:24;;;;;;;6.93;3.70;;;24.50;84.20;;;;;;5073941;28;20028;-55
2022/06/18 08:10:52;;;;;;;12.48;4.55;;;25.20;66.60;;;;;;5074252;28;20021;-55
2022/06/18 08:13:19;;;;;;;5.93;4.20;;;25.50;65.10;;;;;;5074070;28;20025;-55
2022/06/18 08:15:45;;;;;;;5.65;4.07;;;26.20;61.10;;;;;;5075182;28;20055;-56
2022/06/18 08:18:12;;;;;;;6.13;4.18;;;26.30;63.10;;;;;;5077424;28;20039;-56
2022/06/18 08:20:38;;;;;;;11.43;3.72;;;26.60;61.50;;;;;;5077588;28;20470;-55
2022/06/18 08:23:06;;;;;;;7.00;3.95;;;26.90;62.30;;;;;;5077596;28;20029;-56
2022/06/18 08:25:35;;;;;;;7.13;3.90;;;27.40;60.50;;;;;;5077342;28;20025;-55
2022/06/18 08:28:03;;;;;;;8.75;3.92;;;27.60;56.50;;;;;;5076933;28;20470;-56
2022/06/18 08:30:29;;;;;;;4.50;3.10;;;27.90;61.30;;;;;;5077377;28;20020;-56
2022/06/18 08:32:55;;;;;;;9.88;3.17;;;27.10;57.00;;;;;;5077219;28;20065;-55
2022/06/18 08:35:21;;;;;;;8.85;2.60;;;26.90;54.80;;;;;;5077126;28;20088;-55
2022/06/18 08:37:49;;;;;;;5.72;2.70;;;27.20;51.90;;;;;;5077127;28;20062;-56
2022/06/18 08:40:47;;;;;;;4.57;2.70;;;27.80;53.10;;;;;;5076960;28;20032;-56
2022/06/18 08:43:31;;;;;;;4.43;2.55;;;27.70;54.10;;;;;;5077039;28;20438;-56
2022/06/18 08:46:11;;;;;;;2.97;2.38;;;28.30;52.20;;;;;;5077065;28;20081;-56
2022/06/18 08:49:06;;;;;;;11.70;2.60;;;28.40;49.40;;;;;;5076791;28;20031;-56
2022/06/18 08:51:55;;;;;;;4.57;2.10;;;28.70;48.20;;;;;;5076850;28;20509;-56
2022/06/18 08:54:30;;;;;;;6.80;2.42;;;28.60;47.00;;;;;;5069431;28;20048;-55
2022/06/18 08:57:07;;;;;;;14.95;4.68;;;28.80;48.50;;;;;;5076827;28;20116;-56
2022/06/18 08:59:51;;;;;;;4.20;2.35;;;28.80;47.60;;;;;;5076674;28;20466;-55
2022/06/18 09:02:28;;;;;;;4.70;2.30;;;27.70;47.60;;;;;;5076997;28;20029;-56
2022/06/18 09:05:26;;;;;;;5.82;2.15;;;27.70;46.70;;;;;;5076713;28;20028;-56
2022/06/18 09:08:05;;;;;;;4.45;2.30;;;28.20;47.40;;;;;;5074361;28;20490;-56
2022/06/18 09:10:40;;;;;;;6.38;2.75;;;28.40;48.50;;;;;;5076428;28;20474;-55
2022/06/18 09:13:13;;;;;;;4.43;2.35;;;28.40;47.10;;;;;;5076535;28;20051;-55
2022/06/18 09:15:46;;;;;;;3.67;2.85;;;29.00;48.40;;;;;;5076383;28;20084;-56
2022/06/18 09:18:15;;;;;;;4.90;2.67;;;29.10;46.50;;;;;;5076391;28;20021;-56
2022/06/18 09:20:43;;;;;;;4.10;2.35;;;28.80;45.80;;;;;;5076419;28;20045;-55
2022/06/18 09:23:15;;;;;;;4.88;3.10;;;29.30;48.00;;;;;;5076563;28;20162;-56
2022/06/18 09:25:47;;;;;;;5.45;3.00;;;29.40;43.90;;;;;;5076458;28;20043;-55
2022/06/18 09:28:24;;;;;;;5.15;2.53;;;28.90;47.70;;;;;;5075006;28;20024;-56
2022/06/18 09:31:10;;;;;;;4.28;2.92;;;29.00;47.10;;;;;;5076154;28;20028;-55
2022/06/18 09:33:45;;;;;;;11.27;3.50;;;29.20;46.60;;;;;;5076083;28;20588;-55
2022/06/18 09:36:21;;;;;;;5.72;2.42;;;29.40;47.60;;;;;;5076039;28;20453;-55
2022/06/18 09:38:50;;;;;;;4.68;2.55;;;28.80;46.70;;;;;;5075804;28;20051;-55
2022/06/18 09:41:24;;;;;;;3.30;2.45;;;29.20;46.10;;;;;;5075908;28;20029;-55
2022/06/18 09:44:18;;;;;;;3.65;2.33;;;29.20;45.40;;;;;;5075897;28;20545;-55
2022/06/18 09:46:50;;;;;;;2.60;2.38;;;29.40;46.70;;;;;;5075781;28;20054;-55
2022/06/18 09:49:16;;;;;;;3.88;2.92;;;29.30;43.20;;;;;;5075824;28;20024;-55
2022/06/18 09:52:05;;;;;;;9.55;3.22;;;29.40;44.80;;;;;;5075403;28;20557;-56
2022/06/18 09:54:40;;;;;;;4.38;2.95;;;29.80;45.70;;;;;;5075713;28;20119;-55
2022/06/18 09:57:06;;;;;;;4.05;2.67;;;30.00;45.00;;;;;;5075847;28;20024;-55
2022/06/18 09:59:41;;;;;;;4.75;2.83;;;29.40;44.80;;;;;;5075479;28;20417;-55
2022/06/18 10:02:22;;;;;;;4.53;2.67;;;29.40;43.10;;;;;;5075516;28;20029;-55
2022/06/18 10:07:39;;;;;;;8.43;2.67;;;28.80;46.40;;;;;;5075197;28;20028;-56
2022/06/18 10:10:14;;;;;;;8.52;3.95;;;28.70;46.90;;;;;;5075382;28;20028;-55
2022/06/18 10:13:11;;;;;;;4.07;2.67;;;29.00;46.10;;;;;;5075651;28;20028;-55
2022/06/18 10:15:37;;;;;;;5.22;2.60;;;29.50;44.70;;;;;;5074828;28;20036;-55
2022/06/18 10:18:22;;;;;;;8.98;3.42;;;28.20;43.40;;;;;;5075267;28;20028;-55
2022/06/18 10:20:58;;;;;;;3.05;2.50;;;29.10;47.30;;;;;;5074929;28;20040;-56
2022/06/18 10:23:37;;;;;;;7.03;3.35;;;29.50;44.00;;;;;;5075392;28;20029;-55
2022/06/18 10:26:35;;;;;;;15.80;4.70;;;29.50;43.50;;;;;;5074901;28;20024;-55
2022/06/18 10:29:27;;;;;;;7.05;2.60;;;29.50;45.00;;;;;;5074917;28;20115;-56
2022/06/18 10:32:07;;;;;;;7.53;3.10;;;29.40;41.40;;;;;;5075358;28;20074;-55
2022/06/18 10:34:56;;;;;;;2.83;2.25;;;29.10;43.80;;;;;;5054814;28;20028;-55
2022/06/18 10:37:32;;;;;;;6.10;2.47;;;28.50;47.00;;;;;;5049257;28;20101;-55
2022/06/18 10:40:13;;;;;;;5.13;2.78;;;28.70;48.60;;;;;;5066076;28;20058;-55
2022/06/18 10:42:54;;;;;;;6.15;3.00;;;28.90;46.00;;;;;;5074670;28;20031;-55
2022/06/18 10:45:35;;;;;;;6.80;3.10;;;29.20;45.00;;;;;;5074727;28;20024;-55
2022/06/18 10:48:08;;;;;;;7.65;3.17;;;29.40;42.40;;;;;;5074483;28;20032;-55
2022/06/18 10:50:43;;;;;;;6.80;2.35;;;29.30;42.20;;;;;;5074667;28;20037;-55
2022/06/18 10:53:14;;;;;;;2.58;2.25;;;29.80;42.40;;;;;;5074613;28;20068;-55
2022/06/18 10:55:40;;;;;;;17.67;4.75;;;28.90;41.00;;;;;;5074814;28;20024;-55
2022/06/18 10:58:08;;;;;;;7.28;3.22;;;29.00;44.40;;;;;;5074744;28;20081;-55
2022/06/18 11:00:36;;;;;;;3.00;2.72;;;29.20;43.40;;;;;;5074798;28;20048;-55
2022/06/18 11:03:16;;;;;;;7.20;2.92;;;29.80;42.40;;;;;;5074376;28;20044;-55
2022/06/18 11:05:45;;;;;;;12.73;3.40;;;29.40;41.40;;;;;;5074531;28;20040;-55
2022/06/18 11:08:21;;;;;;;6.40;2.53;;;29.50;42.90;;;;;;5074511;28;20032;-55
2022/06/18 11:10:55;;;;;;;23.30;5.28;;;29.70;41.90;;;;;;5074256;28;20474;-55
2022/06/18 11:13:32;;;;;;;7.85;3.20;;;29.70;41.90;;;;;;5074509;28;20029;-55
2022/06/18 11:16:05;;;;;;;6.32;3.15;;;29.50;41.40;;;;;;5074234;28;20021;-55
2022/06/18 11:18:31;;;;;;;10.65;3.40;;;28.70;43.00;;;;;;5074409;28;20036;-55
2022/06/18 11:21:04;;;;;;;3.80;2.70;;;29.30;44.60;;;;;;5074494;28;20111;-55
2022/06/18 11:23:32;;;;;;;7.88;3.20;;;29.80;43.40;;;;;;5074158;28;20044;-55
2022/06/18 11:25:58;;;;;;;8.50;3.88;;;29.50;40.40;;;;;;5074504;28;20044;-55
2022/06/18 11:28:28;;;;;;;8.07;3.05;;;29.40;43.70;;;;;;5074389;28;20063;-55
2022/06/18 11:30:55;;;;;;;11.18;3.15;;;29.00;43.70;;;;;;5074383;28;20083;-55
2022/06/18 11:33:34;;;;;;;9.07;3.28;;;28.90;43.20;;;;;;5074210;28;20021;-55
2022/06/18 11:36:31;;;;;;;7.07;2.83;;;28.70;44.20;;;;;;5073981;28;20036;-55
2022/06/18 11:39:00;;;;;;;4.50;3.10;;;29.10;45.00;;;;;;5073814;28;20028;-55
2022/06/18 11:41:45;;;;;;;12.82;3.33;;;28.70;44.00;;;;;;5074201;28;20036;-55
2022/06/18 11:44:27;;;;;;;4.95;3.00;;;29.40;43.30;;;;;;5074103;28;20028;-55
2022/06/18 11:46:58;;;;;;;14.20;3.15;;;29.50;42.00;;;;;;5074238;28;20038;-55
2022/06/18 11:49:58;;;;;;;8.77;3.60;;;29.20;42.70;;;;;;5074026;28;20489;-55
2022/06/18 11:52:41;;;;;;;4.50;2.80;;;29.60;42.00;;;;;;5077838;28;20044;-55
2022/06/18 11:55:24;;;;;;;6.63;2.58;;;29.90;43.50;;;;;;5077983;28;20021;-55
2022/06/18 11:57:56;;;;;;;10.00;3.00;;;30.20;46.30;;;;;;5078008;28;20424;-55
2022/06/18 12:00:31;;;;;;;3.40;2.47;;;30.60;42.70;;;;;;5077891;28;20474;-55
2022/06/18 12:03:29;;;;;;;24.38;5.13;;;30.70;40.90;;;;;;5077825;28;20386;-55
2022/06/18 12:06:05;;;;;;;12.93;3.20;;;30.30;41.20;;;;;;5077739;28;20088;-55
2022/06/18 12:08:33;;;;;;;14.73;3.90;;;30.50;43.10;;;;;;5077719;28;20033;-55
2022/06/18 12:11:12;;;;;;;5.90;3.15;;;30.70;43.20;;;;;;5077782;28;20033;-55
2022/06/18 12:13:48;;;;;;;5.35;3.17;;;29.80;40.90;;;;;;5077680;28;20028;-55
2022/06/18 12:16:36;;;;;;;3.40;2.60;;;30.50;42.40;;;;;;5077685;28;20059;-55
2022/06/18 12:19:51;;;;;;;4.20;3.40;;;31.10;41.30;;;;;;5077507;28;20035;-55
2022/06/18 12:22:20;;;;;;;3.60;2.88;;;30.70;39.50;;;;;;5035026;28;20041;-55
2022/06/18 12:25:15;;;;;;;6.35;3.75;;;30.80;39.70;;;;;;5035101;28;20046;-55
2022/06/18 12:28:09;;;;;;;15.93;5.85;;;30.40;40.10;;;;;;5029304;28;20041;-55
2022/06/18 12:31:12;;;;;;;9.95;4.38;;;29.50;41.60;;;;;;5018276;28;20538;-55
2022/06/18 12:33:47;;;;;;;5.68;2.75;;;30.40;43.90;;;;;;5034908;28;20026;-55
2022/06/18 12:36:42;;;;;;;15.40;4.60;;;30.40;41.20;;;;;;5034667;28;20586;-55
2022/06/18 12:39:23;;;;;;;11.50;4.07;;;30.00;41.90;;;;;;5034689;28;20025;-55
2022/06/18 12:41:56;;;;;;;11.25;4.70;;;30.30;42.60;;;;;;5034751;28;20046;-55
2022/06/18 12:44:35;;;;;;;12.15;4.85;;;29.90;41.30;;;;;;5034869;28;20435;-54
2022/06/18 12:47:08;;;;;;;9.43;4.05;;;29.60;41.90;;;;;;5034655;28;20164;-55
2022/06/18 12:49:47;;;;;;;15.73;4.30;;;29.40;45.40;;;;;;5034386;28;20111;-55
2022/06/18 12:52:43;;;;;;;9.02;3.20;;;29.30;43.40;;;;;;5034365;28;20049;-55
2022/06/18 12:55:15;;;;;;;9.75;3.22;;;28.80;42.90;;;;;;5037386;28;20026;-54
2022/06/18 12:58:06;;;;;;;4.72;2.30;;;29.40;42.30;;;;;;5056876;28;20033;-54
2022/06/18 13:00:35;;;;;;;5.50;3.15;;;29.90;42.90;;;;;;5056561;28;20032;-55
2022/06/18 13:03:30;;;;;;;4.40;2.47;;;30.20;41.30;;;;;;5056245;28;20029;-55
2022/06/18 13:06:06;;;;;;;6.55;3.17;;;30.60;42.20;;;;;;5039487;28;20039;-55
2022/06/18 13:08:54;;;;;;;6.28;3.08;;;30.10;40.70;;;;;;5056474;28;20572;-55
2022/06/18 13:11:37;;;;;;;5.57;2.97;;;30.00;41.20;;;;;;5056560;28;20102;-54
2022/06/18 13:14:27;;;;;;;5.88;3.05;;;29.70;42.30;;;;;;5056611;28;20033;-55
2022/06/18 13:16:59;;;;;;;9.77;3.88;;;29.80;42.60;;;;;;5056291;28;20028;-55